Cheviot Hills, CA (90064)

7:59 AM PDT on May 29, 2015 (GMT -0700)
Westside Village | | Change Station
CLOSE
Current Station
Personal Weather Station
Location: Los Angeles, CA
Elevation: 187 ft
Nearby Weather Stations

Elev 187 ft 34.03 °N, 118.42 °W | Updated 5 minutes ago

Haze
Haze
61.3 °F
Feels Like 61.3 °F
N
0.0
Wind Variable Wind from SSW

Today
High -- | Low -- °F
--% Chance of Precip.
Yesterday
High -- | Low -- °F
Precip. -- in
5:44 AM 7:58 PM
Waxing Gibbous, 84% visible
Pressure 29.97 in
Visibility 5.0 miles
Clouds Overcast 1000 ft
Dew Point 58 °F
Humidity 89%
Rainfall 0.00 in
Snow Depth Not available.
UV 1 out of 12
Pollen 4.00 out of 12
Air Quality Not available.
Flu Activity Sporadic
METAR KSMO 291451Z 08003KT 5SM HZ OVC010 16/13 A2997 RMK AO2 SLP147 T01610128 52009 $

More Conditions Fewer Conditions

Pressure 29.97 in
Visibility 5.0 miles
Clouds Overcast 1000 ft
Dew Point 58 °F
Humidity 89%
Rainfall 0.00 in
Snow Depth Not available.
UV 1 out of 12
Pollen 4.00 out of 12
Air Quality Not available.
Flu Activity Sporadic
METAR KSMO 291451Z 08003KT 5SM HZ OVC010 16/13 A2997 RMK AO2 SLP147 T01610128 52009 $

More Conditions Fewer Conditions

10-Day Weather Forecast

Almanac

Astronomy

May. 29, 2015 Rise Set
Actual Time
Civil Twilight
Nautical Twilight
Astronomical Twilight
Moon
Length of Visible Light
Length of Day
Tomorrow will be .
, % of the Moon is Illuminated

Today's Extremes

State Highs State Lows

Community

WunderPhotos

Upload Photos

1,825,288 photos uploaded!

WunderBlogs® & News

Nearby

Air Quality

  Air Quality AQ Index Pollutant
Not available.

Snow Depth

Station Depth Elevation

Earthquake Activity

City Distance Mag. Time & Date
Minimum magnitude displayed is 2.5.

Coastal Water Temperatures

Place Temperature

Stations

Nearby Weather Stations

Station Location Temp. Windchill Dew Point Humidity Wind Precip. Elev Updated Type